sensor_id;sensor_type;location;lat;lon;timestamp;pressure;altitude;pressure_sealevel;temperature;humidity
34081;BME280;20358;50.272;19.026;2023-02-22T00:00:02;98242.72;;;3.48;60.31
34081;BME280;20358;50.272;19.026;2023-02-22T00:03:16;98248.66;;;3.51;60.73
34081;BME280;20358;50.272;19.026;2023-02-22T00:06:26;98246.97;;;3.50;60.18
34081;BME280;20358;50.272;19.026;2023-02-22T00:09:37;98230.13;;;3.39;60.87
34081;BME280;20358;50.272;19.026;2023-02-22T00:12:42;98252.00;;;3.36;60.47
34081;BME280;20358;50.272;19.026;2023-02-22T00:15:48;98234.09;;;3.29;61.44
34081;BME280;20358;50.272;19.026;2023-02-22T00:18:54;98234.72;;;3.34;60.99
34081;BME280;20358;50.272;19.026;2023-02-22T00:22:00;98237.19;;;3.37;61.28
34081;BME280;20358;50.272;19.026;2023-02-22T00:25:09;98240.69;;;3.36;60.56
34081;BME280;20358;50.272;19.026;2023-02-22T00:28:16;98241.63;;;3.35;61.28
34081;BME280;20358;50.272;19.026;2023-02-22T00:31:25;98237.53;;;3.29;61.52
34081;BME280;20358;50.272;19.026;2023-02-22T00:34:31;98235.31;;;3.22;61.77
34081;BME280;20358;50.272;19.026;2023-02-22T00:37:36;98219.38;;;2.90;61.31
34081;BME280;20358;50.272;19.026;2023-02-22T00:40:46;98249.38;;;2.99;62.13
34081;BME280;20358;50.272;19.026;2023-02-22T00:43:52;98249.53;;;2.96;61.94
34081;BME280;20358;50.272;19.026;2023-02-22T00:46:58;98240.50;;;2.84;61.72
34081;BME280;20358;50.272;19.026;2023-02-22T00:50:06;98240.91;;;2.75;62.65
34081;BME280;20358;50.272;19.026;2023-02-22T00:53:13;98245.97;;;2.78;62.84
34081;BME280;20358;50.272;19.026;2023-02-22T00:56:22;98244.16;;;2.80;62.86
34081;BME280;20358;50.272;19.026;2023-02-22T00:59:29;98248.44;;;2.81;61.88
34081;BME280;20358;50.272;19.026;2023-02-22T01:02:35;98244.16;;;2.80;61.79
34081;BME280;20358;50.272;19.026;2023-02-22T01:05:42;98247.56;;;2.82;63.06
34081;BME280;20358;50.272;19.026;2023-02-22T01:08:48;98245.41;;;2.72;62.39
34081;BME280;20358;50.272;19.026;2023-02-22T01:11:57;98250.69;;;2.70;62.94
34081;BME280;20358;50.272;19.026;2023-02-22T01:15:04;98251.63;;;2.69;62.96
34081;BME280;20358;50.272;19.026;2023-02-22T01:18:12;98253.47;;;2.67;62.28
34081;BME280;20358;50.272;19.026;2023-02-22T01:21:18;98259.78;;;2.62;63.20
34081;BME280;20358;50.272;19.026;2023-02-22T01:24:24;98253.97;;;2.55;62.15
34081;BME280;20358;50.272;19.026;2023-02-22T01:27:33;98243.69;;;2.52;62.33
34081;BME280;20358;50.272;19.026;2023-02-22T01:30:40;98244.31;;;2.57;62.41
34081;BME280;20358;50.272;19.026;2023-02-22T01:33:46;98242.38;;;2.62;63.51
34081;BME280;20358;50.272;19.026;2023-02-22T01:36:52;98252.53;;;2.68;62.86
34081;BME280;20358;50.272;19.026;2023-02-22T01:39:58;98248.16;;;2.69;62.15
34081;BME280;20358;50.272;19.026;2023-02-22T01:43:22;98003.66;;;1.23;63.26
34081;BME280;20358;50.272;19.026;2023-02-22T01:46:30;98251.63;;;2.69;61.79
34081;BME280;20358;50.272;19.026;2023-02-22T01:49:45;98248.38;;;2.64;61.78
34081;BME280;20358;50.272;19.026;2023-02-22T01:52:54;98249.47;;;2.59;62.14
34081;BME280;20358;50.272;19.026;2023-02-22T01:56:02;98248.63;;;2.58;62.48
34081;BME280;20358;50.272;19.026;2023-02-22T01:59:12;98255.47;;;2.61;62.62
34081;BME280;20358;50.272;19.026;2023-02-22T02:02:21;98251.16;;;2.60;62.48
34081;BME280;20358;50.272;19.026;2023-02-22T02:05:30;98236.66;;;2.54;63.52
34081;BME280;20358;50.272;19.026;2023-02-22T02:08:45;98245.13;;;2.59;62.99
34081;BME280;20358;50.272;19.026;2023-02-22T02:11:59;98222.81;;;2.52;62.63
34081;BME280;20358;50.272;19.026;2023-02-22T02:15:23;98246.66;;;2.63;62.78
34081;BME280;20358;50.272;19.026;2023-02-22T02:18:33;98243.94;;;2.66;62.78
34081;BME280;20358;50.272;19.026;2023-02-22T02:25:46;98248.63;;;2.58;62.10
34081;BME280;20358;50.272;19.026;2023-02-22T02:33:28;98242.94;;;2.30;63.49
34081;BME280;20358;50.272;19.026;2023-02-22T02:36:45;98242.72;;;2.14;64.38
34081;BME280;20358;50.272;19.026;2023-02-22T02:40:11;98248.91;;;2.12;64.00
34081;BME280;20358;50.272;19.026;2023-02-22T02:43:32;98238.69;;;2.07;63.68
34081;BME280;20358;50.272;19.026;2023-02-22T02:46:48;98253.88;;;2.18;63.81
34081;BME280;20358;50.272;19.026;2023-02-22T02:50:10;98234.84;;;2.16;62.93
34081;BME280;20358;50.272;19.026;2023-02-22T02:53:26;98166.38;;;1.72;62.86
34081;BME280;20358;50.272;19.026;2023-02-22T02:56:36;98238.09;;;2.21;63.26
34081;BME280;20358;50.272;19.026;2023-02-22T02:59:43;98253.47;;;2.27;62.97
34081;BME280;20358;50.272;19.026;2023-02-22T03:03:03;98258.56;;;2.30;61.85
34081;BME280;20358;50.272;19.026;2023-02-22T03:06:47;98261.03;;;2.33;62.46
34081;BME280;20358;50.272;19.026;2023-02-22T03:10:31;98254.06;;;2.33;62.51
34081;BME280;20358;50.272;19.026;2023-02-22T03:14:08;98051.91;;;1.10;62.32
34081;BME280;20358;50.272;19.026;2023-02-22T03:17:27;98254.91;;;2.34;61.45
34081;BME280;20358;50.272;19.026;2023-02-22T03:20:51;98266.03;;;2.37;62.45
34081;BME280;20358;50.272;19.026;2023-02-22T03:24:15;98250.50;;;2.36;63.00
34081;BME280;20358;50.272;19.026;2023-02-22T03:27:36;98253.09;;;2.36;62.27
34081;BME280;20358;50.272;19.026;2023-02-22T03:30:53;98253.91;;;2.36;62.87
34081;BME280;20358;50.272;19.026;2023-02-22T03:34:10;98259.00;;;2.39;62.70
34081;BME280;20358;50.272;19.026;2023-02-22T03:37:24;98184.69;;;1.91;62.83
34081;BME280;20358;50.272;19.026;2023-02-22T03:40:44;98021.47;;;0.92;62.76
34081;BME280;20358;50.272;19.026;2023-02-22T03:44:01;98272.03;;;2.39;62.18
34081;BME280;20358;50.272;19.026;2023-02-22T03:47:17;98272.97;;;2.38;63.05
34081;BME280;20358;50.272;19.026;2023-02-22T03:50:34;98261.94;;;2.32;63.45
34081;BME280;20358;50.272;19.026;2023-02-22T03:53:43;98279.97;;;2.36;63.49
34081;BME280;20358;50.272;19.026;2023-02-22T03:56:57;98270.53;;;2.34;62.61
34081;BME280;20358;50.272;19.026;2023-02-22T04:00:16;98267.44;;;2.26;63.20
34081;BME280;20358;50.272;19.026;2023-02-22T04:03:25;98263.25;;;2.22;63.24
34081;BME280;20358;50.272;19.026;2023-02-22T04:06:32;98270.94;;;2.25;62.89
34081;BME280;20358;50.272;19.026;2023-02-22T04:09:38;98265.00;;;2.21;63.34
34081;BME280;20358;50.272;19.026;2023-02-22T04:12:48;98262.66;;;2.15;62.95
34081;BME280;20358;50.272;19.026;2023-02-22T04:15:56;98280.06;;;2.15;63.66
34081;BME280;20358;50.272;19.026;2023-02-22T04:19:02;98254.25;;;2.09;63.96
34081;BME280;20358;50.272;19.026;2023-02-22T04:22:09;98266.09;;;2.16;63.45
34081;BME280;20358;50.272;19.026;2023-02-22T04:25:16;98269.50;;;2.18;63.89
34081;BME280;20358;50.272;19.026;2023-02-22T04:28:25;98271.19;;;2.19;64.04
34081;BME280;20358;50.272;19.026;2023-02-22T04:32:21;98252.31;;;2.14;64.54
34081;BME280;20358;50.272;19.026;2023-02-22T04:35:27;98272.78;;;2.23;63.97
34081;BME280;20358;50.272;19.026;2023-02-22T04:38:39;98261.50;;;2.22;64.69
34081;BME280;20358;50.272;19.026;2023-02-22T04:41:44;98268.34;;;2.25;64.93
34081;BME280;20358;50.272;19.026;2023-02-22T04:44:54;98268.97;;;2.30;64.52
34081;BME280;20358;50.272;19.026;2023-02-22T04:48:02;98246.72;;;2.23;64.56
34081;BME280;20358;50.272;19.026;2023-02-22T04:51:09;98264.63;;;2.30;63.41
34081;BME280;20358;50.272;19.026;2023-02-22T04:54:25;98251.81;;;2.26;63.96
34081;BME280;20358;50.272;19.026;2023-02-22T04:57:32;98270.69;;;2.31;63.58
34081;BME280;20358;50.272;19.026;2023-02-22T05:00:40;98252.06;;;2.20;64.28
34081;BME280;20358;50.272;19.026;2023-02-22T05:03:46;98270.69;;;2.31;64.73
34081;BME280;20358;50.272;19.026;2023-02-22T05:06:52;98258.88;;;2.22;64.78
34081;BME280;20358;50.272;19.026;2023-02-22T05:09:58;98263.31;;;2.20;64.40
34081;BME280;20358;50.272;19.026;2023-02-22T05:13:04;98270.09;;;2.24;64.14
34081;BME280;20358;50.272;19.026;2023-02-22T05:16:14;98268.47;;;2.22;64.97
34081;BME280;20358;50.272;19.026;2023-02-22T05:19:20;98253.28;;;2.11;65.15
34081;BME280;20358;50.272;19.026;2023-02-22T05:22:27;98261.88;;;2.13;65.24
34081;BME280;20358;50.272;19.026;2023-02-22T05:25:32;98283.44;;;2.17;64.61
34081;BME280;20358;50.272;19.026;2023-02-22T05:28:40;98276.16;;;2.25;64.52
34081;BME280;20358;50.272;19.026;2023-02-22T05:31:49;98277.56;;;2.32;64.94
34081;BME280;20358;50.272;19.026;2023-02-22T05:34:56;98251.19;;;2.19;64.20
34081;BME280;20358;50.272;19.026;2023-02-22T05:38:01;98270.41;;;2.37;64.68
34081;BME280;20358;50.272;19.026;2023-02-22T05:41:10;98281.88;;;2.53;65.03
34081;BME280;20358;50.272;19.026;2023-02-22T05:44:17;98285.13;;;2.58;63.26
34081;BME280;20358;50.272;19.026;2023-02-22T05:47:26;98286.44;;;2.48;64.19
34081;BME280;20358;50.272;19.026;2023-02-22T05:50:33;98289.03;;;2.48;63.88
34081;BME280;20358;50.272;19.026;2023-02-22T05:53:39;98139.00;;;1.63;64.56
34081;BME280;20358;50.272;19.026;2023-02-22T05:56:45;98288.50;;;2.60;63.88
34081;BME280;20358;50.272;19.026;2023-02-22T05:59:51;98284.88;;;2.64;63.84
34081;BME280;20358;50.272;19.026;2023-02-22T06:03:01;98292.34;;;2.72;64.29
34081;BME280;20358;50.272;19.026;2023-02-22T06:06:10;98303.22;;;2.81;63.72
34081;BME280;20358;50.272;19.026;2023-02-22T06:09:15;98304.00;;;2.83;63.01
34081;BME280;20358;50.272;19.026;2023-02-22T06:12:21;98308.19;;;2.87;63.47
34081;BME280;20358;50.272;19.026;2023-02-22T06:15:29;98304.50;;;2.91;62.77
34081;BME280;20358;50.272;19.026;2023-02-22T06:18:38;98320.63;;;3.01;62.49
34081;BME280;20358;50.272;19.026;2023-02-22T06:21:48;98140.19;;;1.97;62.03
34081;BME280;20358;50.272;19.026;2023-02-22T06:24:55;98323.88;;;3.06;62.21
34081;BME280;20358;50.272;19.026;2023-02-22T06:28:01;98352.34;;;3.11;62.72
34081;BME280;20358;50.272;19.026;2023-02-22T06:31:07;98312.56;;;3.05;63.01
34081;BME280;20358;50.272;19.026;2023-02-22T06:34:16;98335.63;;;3.15;62.79
34081;BME280;20358;50.272;19.026;2023-02-22T06:37:23;98335.94;;;3.09;63.17
34081;BME280;20358;50.272;19.026;2023-02-22T06:40:29;98336.63;;;3.12;62.48
34081;BME280;20358;50.272;19.026;2023-02-22T06:43:35;98344.09;;;3.20;62.51
34081;BME280;20358;50.272;19.026;2023-02-22T06:46:46;98350.75;;;3.27;62.44
34081;BME280;20358;50.272;19.026;2023-02-22T06:49:58;98354.91;;;3.31;62.53
34081;BME280;20358;50.272;19.026;2023-02-22T06:53:04;98342.56;;;3.34;62.59
34081;BME280;20358;50.272;19.026;2023-02-22T06:56:11;98352.38;;;3.48;62.24
34081;BME280;20358;50.272;19.026;2023-02-22T06:59:16;98358.38;;;3.50;61.86
34081;BME280;20358;50.272;19.026;2023-02-22T07:02:23;98361.50;;;3.58;61.76
34081;BME280;20358;50.272;19.026;2023-02-22T07:05:31;98356.47;;;3.72;62.27
34081;BME280;20358;50.272;19.026;2023-02-22T07:08:37;98357.19;;;3.76;61.85
34081;BME280;20358;50.272;19.026;2023-02-22T07:11:43;98369.47;;;3.92;61.22
34081;BME280;20358;50.272;19.026;2023-02-22T07:14:53;98372.00;;;3.94;60.87
34081;BME280;20358;50.272;19.026;2023-02-22T07:17:59;98360.47;;;3.98;61.54
34081;BME280;20358;50.272;19.026;2023-02-22T07:21:09;98354.56;;;3.94;60.48
34081;BME280;20358;50.272;19.026;2023-02-22T07:24:15;98364.09;;;3.95;60.56
34081;BME280;20358;50.272;19.026;2023-02-22T07:27:22;98357.19;;;3.94;61.63
34081;BME280;20358;50.272;19.026;2023-02-22T07:30:29;98369.03;;;4.01;61.30
34081;BME280;20358;50.272;19.026;2023-02-22T07:33:37;98367.06;;;4.06;60.68
34081;BME280;20358;50.272;19.026;2023-02-22T07:36:46;98365.34;;;4.05;60.15
34081;BME280;20358;50.272;19.026;2023-02-22T07:39:52;98375.66;;;4.08;61.49
34081;BME280;20358;50.272;19.026;2023-02-22T07:43:00;98370.75;;;4.19;61.02
34081;BME280;20358;50.272;19.026;2023-02-22T07:46:08;98366.69;;;4.14;60.31
34081;BME280;20358;50.272;19.026;2023-02-22T07:49:14;98356.31;;;4.12;60.49
34081;BME280;20358;50.272;19.026;2023-02-22T07:52:23;98370.13;;;4.14;59.55
34081;BME280;20358;50.272;19.026;2023-02-22T07:55:31;98354.59;;;4.11;59.90
34081;BME280;20358;50.272;19.026;2023-02-22T07:58:38;98366.00;;;4.27;60.40
34081;BME280;20358;50.272;19.026;2023-02-22T08:01:43;98366.69;;;4.31;59.86
34081;BME280;20358;50.272;19.026;2023-02-22T08:04:51;98365.41;;;4.40;59.37
34081;BME280;20358;50.272;19.026;2023-02-22T08:08:00;98353.09;;;4.42;59.69
34081;BME280;20358;50.272;19.026;2023-02-22T08:11:08;98372.41;;;4.56;59.83
34081;BME280;20358;50.272;19.026;2023-02-22T08:14:15;98366.34;;;4.56;58.38
34081;BME280;20358;50.272;19.026;2023-02-22T08:17:22;98374.81;;;4.61;58.60
34081;BME280;20358;50.272;19.026;2023-02-22T08:20:29;98376.81;;;4.56;59.05
34081;BME280;20358;50.272;19.026;2023-02-22T08:23:38;98372.56;;;4.53;59.56
34081;BME280;20358;50.272;19.026;2023-02-22T08:26:44;98332.66;;;4.33;59.85
34081;BME280;20358;50.272;19.026;2023-02-22T08:29:51;98368.66;;;4.62;59.95
34081;BME280;20358;50.272;19.026;2023-02-22T08:32:58;98370.03;;;4.69;59.23
34081;BME280;20358;50.272;19.026;2023-02-22T08:36:05;98368.72;;;4.77;59.10
34081;BME280;20358;50.272;19.026;2023-02-22T08:39:14;98373.38;;;4.88;58.50
34081;BME280;20358;50.272;19.026;2023-02-22T08:42:21;98371.41;;;4.93;57.20
34081;BME280;20358;50.272;19.026;2023-02-22T08:45:28;98381.53;;;4.99;57.00
34081;BME280;20358;50.272;19.026;2023-02-22T08:48:35;98379.38;;;5.07;55.92
34081;BME280;20358;50.272;19.026;2023-02-22T08:51:41;98385.81;;;5.17;56.15
34081;BME280;20358;50.272;19.026;2023-02-22T08:54:50;98385.53;;;5.23;55.51
34081;BME280;20358;50.272;19.026;2023-02-22T08:57:56;98387.38;;;5.21;56.40
34081;BME280;20358;50.272;19.026;2023-02-22T09:01:05;98386.19;;;5.27;56.64
34081;BME280;20358;50.272;19.026;2023-02-22T09:04:10;98380.88;;;5.28;55.42
34081;BME280;20358;50.272;19.026;2023-02-22T09:07:17;98385.88;;;5.33;55.82
34081;BME280;20358;50.272;19.026;2023-02-22T09:10:28;98386.09;;;5.45;55.87
34081;BME280;20358;50.272;19.026;2023-02-22T09:13:37;98390.69;;;5.58;55.75
34081;BME280;20358;50.272;19.026;2023-02-22T09:16:43;98384.19;;;5.65;55.53
34081;BME280;20358;50.272;19.026;2023-02-22T09:19:50;98392.81;;;5.82;54.63
34081;BME280;20358;50.272;19.026;2023-02-22T09:22:55;98385.50;;;5.89;55.01
34081;BME280;20358;50.272;19.026;2023-02-22T09:26:09;98383.94;;;6.00;53.40
34081;BME280;20358;50.272;19.026;2023-02-22T09:29:17;98395.19;;;6.18;53.02
34081;BME280;20358;50.272;19.026;2023-02-22T09:32:25;98397.13;;;6.30;52.05
34081;BME280;20358;50.272;19.026;2023-02-22T09:35:31;98383.25;;;6.28;50.81
34081;BME280;20358;50.272;19.026;2023-02-22T09:38:38;98377.66;;;6.34;51.29
34081;BME280;20358;50.272;19.026;2023-02-22T09:41:54;98389.31;;;6.44;51.87
34081;BME280;20358;50.272;19.026;2023-02-22T09:45:14;98392.16;;;6.55;51.93
34081;BME280;20358;50.272;19.026;2023-02-22T09:48:29;98384.72;;;6.63;50.93
34081;BME280;20358;50.272;19.026;2023-02-22T09:51:44;98391.84;;;6.61;49.07
34081;BME280;20358;50.272;19.026;2023-02-22T09:55:06;98386.94;;;6.55;48.29
34081;BME280;20358;50.272;19.026;2023-02-22T09:58:23;98384.91;;;6.45;48.33
34081;BME280;20358;50.272;19.026;2023-02-22T10:01:39;98392.50;;;6.49;49.39
34081;BME280;20358;50.272;19.026;2023-02-22T10:04:56;98382.88;;;6.50;50.29
34081;BME280;20358;50.272;19.026;2023-02-22T10:08:11;98311.44;;;6.15;50.00
34081;BME280;20358;50.272;19.026;2023-02-22T10:11:34;98378.91;;;6.72;50.53
34081;BME280;20358;50.272;19.026;2023-02-22T10:15:07;98018.28;;;4.45;48.41
34081;BME280;20358;50.272;19.026;2023-02-22T10:18:52;98378.88;;;6.58;48.80
34081;BME280;20358;50.272;19.026;2023-02-22T10:22:25;98383.09;;;6.61;48.14
34081;BME280;20358;50.272;19.026;2023-02-22T10:25:56;98375.38;;;6.73;48.02
34081;BME280;20358;50.272;19.026;2023-02-22T10:29:19;98377.06;;;6.74;47.96
34081;BME280;20358;50.272;19.026;2023-02-22T10:32:41;98381.91;;;6.82;48.27
34081;BME280;20358;50.272;19.026;2023-02-22T10:35:51;98368.09;;;6.79;47.75
34081;BME280;20358;50.272;19.026;2023-02-22T10:39:12;98371.78;;;6.90;47.80
34081;BME280;20358;50.272;19.026;2023-02-22T10:42:29;98356.84;;;6.91;46.20
34081;BME280;20358;50.272;19.026;2023-02-22T10:45:36;98364.28;;;6.98;46.74
34081;BME280;20358;50.272;19.026;2023-02-22T10:48:49;98367.00;;;6.97;46.86
34081;BME280;20358;50.272;19.026;2023-02-22T10:52:00;98371.22;;;6.99;47.47
34081;BME280;20358;50.272;19.026;2023-02-22T10:55:12;98369.84;;;7.08;46.64
34081;BME280;20358;50.272;19.026;2023-02-22T10:58:19;98365.91;;;7.15;45.75
34081;BME280;20358;50.272;19.026;2023-02-22T11:01:34;98318.47;;;6.74;44.18
34081;BME280;20358;50.272;19.026;2023-02-22T11:04:48;98360.25;;;6.93;44.38
34081;BME280;20358;50.272;19.026;2023-02-22T11:08:24;98368.31;;;6.90;45.61
34081;BME280;20358;50.272;19.026;2023-02-22T11:11:34;98368.09;;;6.79;45.15
34081;BME280;20358;50.272;19.026;2023-02-22T11:14:40;98357.03;;;6.58;45.22
34081;BME280;20358;50.272;19.026;2023-02-22T11:17:49;98362.97;;;6.61;45.27
34081;BME280;20358;50.272;19.026;2023-02-22T11:21:05;98359.88;;;6.39;45.87
34081;BME280;20358;50.272;19.026;2023-02-22T11:24:15;98351.97;;;6.25;46.50
34081;BME280;20358;50.272;19.026;2023-02-22T11:27:27;98285.22;;;5.85;47.30
34081;BME280;20358;50.272;19.026;2023-02-22T11:30:43;98348.31;;;6.28;47.43
34081;BME280;20358;50.272;19.026;2023-02-22T11:33:56;98347.88;;;6.35;47.13
34081;BME280;20358;50.272;19.026;2023-02-22T11:37:28;98348.22;;;6.29;46.50
34081;BME280;20358;50.272;19.026;2023-02-22T11:40:37;98365.00;;;6.11;46.68
34081;BME280;20358;50.272;19.026;2023-02-22T11:43:46;98346.47;;;6.14;47.88
34081;BME280;20358;50.272;19.026;2023-02-22T11:46:54;98355.50;;;6.24;47.81
34081;BME280;20358;50.272;19.026;2023-02-22T11:50:17;98356.03;;;6.15;46.63
34081;BME280;20358;50.272;19.026;2023-02-22T11:53:46;98357.66;;;6.18;46.84
34081;BME280;20358;50.272;19.026;2023-02-22T11:57:26;98350.19;;;6.10;46.75
34081;BME280;20358;50.272;19.026;2023-02-22T12:00:51;98343.31;;;6.23;47.70
34081;BME280;20358;50.272;19.026;2023-02-22T12:04:38;98348.94;;;6.17;46.79
34081;BME280;20358;50.272;19.026;2023-02-22T12:08:11;98348.41;;;6.26;47.44
34081;BME280;20358;50.272;19.026;2023-02-22T12:11:37;98342.19;;;6.43;47.25
34081;BME280;20358;50.272;19.026;2023-02-22T12:14:59;98330.09;;;6.40;46.15
34081;BME280;20358;50.272;19.026;2023-02-22T12:18:20;98340.22;;;6.46;45.28
34081;BME280;20358;50.272;19.026;2023-02-22T12:21:39;98340.44;;;6.43;44.42
34081;BME280;20358;50.272;19.026;2023-02-22T12:24:55;98336.69;;;6.47;45.13
34081;BME280;20358;50.272;19.026;2023-02-22T12:28:21;98342.56;;;6.66;45.71
34081;BME280;20358;50.272;19.026;2023-02-22T12:31:38;98337.91;;;6.86;44.93
34081;BME280;20358;50.272;19.026;2023-02-22T12:34:56;98347.31;;;7.04;45.12
34081;BME280;20358;50.272;19.026;2023-02-22T12:38:13;98337.00;;;7.15;43.79
34081;BME280;20358;50.272;19.026;2023-02-22T12:41:33;98332.78;;;7.12;43.80
34081;BME280;20358;50.272;19.026;2023-02-22T12:44:53;98337.38;;;7.09;43.31
34081;BME280;20358;50.272;19.026;2023-02-22T12:48:22;98342.25;;;7.01;42.40
34081;BME280;20358;50.272;19.026;2023-02-22T12:51:43;98340.94;;;6.94;42.59
34081;BME280;20358;50.272;19.026;2023-02-22T12:55:03;98332.19;;;6.79;42.52
34081;BME280;20358;50.272;19.026;2023-02-22T12:58:22;98324.81;;;6.70;42.86
34081;BME280;20358;50.272;19.026;2023-02-22T13:01:39;98328.66;;;6.64;44.04
34081;BME280;20358;50.272;19.026;2023-02-22T13:04:49;98330.16;;;6.68;43.42
34081;BME280;20358;50.272;19.026;2023-02-22T13:08:07;98326.97;;;6.63;43.47
34081;BME280;20358;50.272;19.026;2023-02-22T13:11:33;98325.66;;;6.56;44.37
34081;BME280;20358;50.272;19.026;2023-02-22T13:15:00;98323.97;;;6.55;44.19
34081;BME280;20358;50.272;19.026;2023-02-22T13:18:26;98320.03;;;6.62;43.52
34081;BME280;20358;50.272;19.026;2023-02-22T13:21:46;98320.19;;;6.59;43.75
34081;BME280;20358;50.272;19.026;2023-02-22T13:25:05;98320.97;;;6.61;43.68
34081;BME280;20358;50.272;19.026;2023-02-22T13:28:23;98316.56;;;6.62;44.11
34081;BME280;20358;50.272;19.026;2023-02-22T13:31:59;98315.19;;;6.70;44.38
34081;BME280;20358;50.272;19.026;2023-02-22T13:35:38;98313.97;;;6.76;42.99
34081;BME280;20358;50.272;19.026;2023-02-22T13:39:29;98320.31;;;6.88;43.43
34081;BME280;20358;50.272;19.026;2023-02-22T13:46:58;98306.09;;;6.76;43.50
34081;BME280;20358;50.272;19.026;2023-02-22T13:50:34;98321.78;;;6.77;44.46
34081;BME280;20358;50.272;19.026;2023-02-22T13:53:59;98305.94;;;6.79;44.88
34081;BME280;20358;50.272;19.026;2023-02-22T13:57:20;98316.00;;;6.87;44.96
34081;BME280;20358;50.272;19.026;2023-02-22T14:00:42;98319.75;;;6.97;45.41
34081;BME280;20358;50.272;19.026;2023-02-22T14:03:49;98319.38;;;7.03;44.25
34081;BME280;20358;50.272;19.026;2023-02-22T14:07:00;98309.25;;;6.97;43.95
34081;BME280;20358;50.272;19.026;2023-02-22T14:10:47;98317.22;;;6.95;43.79
34081;BME280;20358;50.272;19.026;2023-02-22T14:14:14;98316.38;;;6.95;44.25
34081;BME280;20358;50.272;19.026;2023-02-22T14:17:25;98312.63;;;6.99;43.78
34081;BME280;20358;50.272;19.026;2023-02-22T14:20:35;98311.13;;;6.95;43.64
34081;BME280;20358;50.272;19.026;2023-02-22T14:23:46;98310.44;;;6.91;43.68
34081;BME280;20358;50.272;19.026;2023-02-22T14:26:58;98308.69;;;6.92;43.83
34081;BME280;20358;50.272;19.026;2023-02-22T14:30:23;98309.72;;;6.89;43.62
34081;BME280;20358;50.272;19.026;2023-02-22T14:34:06;98310.00;;;6.85;43.05
34081;BME280;20358;50.272;19.026;2023-02-22T14:37:16;98310.06;;;6.83;44.41
34081;BME280;20358;50.272;19.026;2023-02-22T14:40:33;98309.59;;;6.77;44.57
34081;BME280;20358;50.272;19.026;2023-02-22T14:43:43;98313.13;;;6.61;43.97
34081;BME280;20358;50.272;19.026;2023-02-22T14:46:57;98317.19;;;6.51;44.10
34081;BME280;20358;50.272;19.026;2023-02-22T14:50:16;98318.22;;;6.49;44.28
34081;BME280;20358;50.272;19.026;2023-02-22T14:53:34;98320.00;;;6.48;44.30
34081;BME280;20358;50.272;19.026;2023-02-22T14:56:58;98314.19;;;6.43;44.13
34081;BME280;20358;50.272;19.026;2023-02-22T15:00:25;98256.53;;;5.98;44.49
34081;BME280;20358;50.272;19.026;2023-02-22T15:03:41;98319.59;;;6.40;44.74
34081;BME280;20358;50.272;19.026;2023-02-22T15:06:51;98319.59;;;6.40;45.25
34081;BME280;20358;50.272;19.026;2023-02-22T15:10:18;98315.00;;;6.30;44.30
34081;BME280;20358;50.272;19.026;2023-02-22T15:13:30;98319.47;;;6.28;44.95
34081;BME280;20358;50.272;19.026;2023-02-22T15:16:48;98320.69;;;6.22;45.68
34081;BME280;20358;50.272;19.026;2023-02-22T15:19:56;98317.47;;;6.17;45.22
34081;BME280;20358;50.272;19.026;2023-02-22T15:23:02;98320.16;;;6.15;45.38
34081;BME280;20358;50.272;19.026;2023-02-22T15:26:20;98318.22;;;6.19;45.32
34081;BME280;20358;50.272;19.026;2023-02-22T15:29:35;98317.88;;;6.25;44.49
34081;BME280;20358;50.272;19.026;2023-02-22T15:32:46;98319.56;;;6.26;43.87
34081;BME280;20358;50.272;19.026;2023-02-22T15:36:11;98326.09;;;6.19;43.71
34081;BME280;20358;50.272;19.026;2023-02-22T15:39:22;98225.75;;;5.40;44.52
34081;BME280;20358;50.272;19.026;2023-02-22T15:42:30;98316.97;;;5.95;44.58
34081;BME280;20358;50.272;19.026;2023-02-22T15:45:44;98317.84;;;5.95;44.87
34081;BME280;20358;50.272;19.026;2023-02-22T15:49:18;98324.09;;;5.93;45.06
34081;BME280;20358;50.272;19.026;2023-02-22T15:52:26;98322.38;;;5.92;45.40
34081;BME280;20358;50.272;19.026;2023-02-22T15:55:36;98320.56;;;5.94;45.57
34081;BME280;20358;50.272;19.026;2023-02-22T15:58:46;98316.81;;;5.98;45.70
34081;BME280;20358;50.272;19.026;2023-02-22T16:01:57;98306.66;;;5.92;45.49
34081;BME280;20358;50.272;19.026;2023-02-22T16:05:07;98322.22;;;5.95;45.75
34081;BME280;20358;50.272;19.026;2023-02-22T16:08:19;98319.03;;;5.90;45.50
34081;BME280;20358;50.272;19.026;2023-02-22T16:11:32;98323.25;;;5.77;45.49
34081;BME280;20358;50.272;19.026;2023-02-22T16:14:41;98312.78;;;5.61;45.69
34081;BME280;20358;50.272;19.026;2023-02-22T16:17:50;98322.06;;;5.51;46.61
34081;BME280;20358;50.272;19.026;2023-02-22T16:21:06;98279.59;;;5.13;46.39
34081;BME280;20358;50.272;19.026;2023-02-22T16:24:24;98332.06;;;5.27;46.31
34081;BME280;20358;50.272;19.026;2023-02-22T16:27:39;98327.38;;;5.17;46.32
34081;BME280;20358;50.272;19.026;2023-02-22T16:30:55;98327.94;;;5.06;46.87
34081;BME280;20358;50.272;19.026;2023-02-22T16:34:06;98336.16;;;5.00;46.79
34081;BME280;20358;50.272;19.026;2023-02-22T16:37:21;98336.59;;;4.91;46.86
34081;BME280;20358;50.272;19.026;2023-02-22T16:40:32;98335.50;;;4.79;47.17
34081;BME280;20358;50.272;19.026;2023-02-22T16:43:42;98342.94;;;4.70;47.50
34081;BME280;20358;50.272;19.026;2023-02-22T16:46:49;98340.72;;;4.62;47.52
34081;BME280;20358;50.272;19.026;2023-02-22T16:49:58;98341.09;;;4.55;47.88
34081;BME280;20358;50.272;19.026;2023-02-22T16:53:04;98332.97;;;4.44;47.84
34081;BME280;20358;50.272;19.026;2023-02-22T16:56:13;98344.34;;;4.43;48.20
34081;BME280;20358;50.272;19.026;2023-02-22T16:59:22;98338.41;;;4.39;48.56
34081;BME280;20358;50.272;19.026;2023-02-22T17:02:28;98341.25;;;4.35;48.35
34081;BME280;20358;50.272;19.026;2023-02-22T17:05:37;98336.31;;;4.28;49.07
34081;BME280;20358;50.272;19.026;2023-02-22T17:08:43;98340.94;;;4.23;49.10
34081;BME280;20358;50.272;19.026;2023-02-22T17:11:50;98346.38;;;4.19;49.11
34081;BME280;20358;50.272;19.026;2023-02-22T17:14:59;98347.53;;;4.13;49.10